createdAt,value
2022-11-21T00:01:40.874Z,0.90
2022-11-21T00:04:33.548Z,0.80
2022-11-21T00:07:25.675Z,0.60
2022-11-21T00:10:18.024Z,0.60
2022-11-21T00:13:28.253Z,0.70
2022-11-21T00:16:20.456Z,0.70
2022-11-21T00:19:12.587Z,0.80
2022-11-21T00:22:04.689Z,1.00
2022-11-21T00:24:56.851Z,1.10
2022-11-21T00:27:48.999Z,1.20
2022-11-21T00:30:41.123Z,1.20
2022-11-21T00:33:35.057Z,1.30
2022-11-21T00:36:27.249Z,1.40
2022-11-21T00:39:19.336Z,1.50
2022-11-21T00:42:11.500Z,1.60
2022-11-21T00:45:04.000Z,1.60
2022-11-21T00:47:56.137Z,1.70
2022-11-21T00:50:49.637Z,1.80
2022-11-21T00:53:41.944Z,1.80
2022-11-21T00:56:34.101Z,1.80
2022-11-21T00:59:26.358Z,1.90
2022-11-21T01:02:18.511Z,1.90
2022-11-21T01:05:10.830Z,2.00
2022-11-21T01:08:03.038Z,2.10
2022-11-21T01:10:55.159Z,2.00
2022-11-21T01:13:48.472Z,1.50
2022-11-21T01:16:40.684Z,1.50
2022-11-21T01:19:32.809Z,1.40
2022-11-21T01:22:24.955Z,1.20
2022-11-21T01:25:17.212Z,1.20
2022-11-21T01:28:09.312Z,1.10
2022-11-21T01:31:05.434Z,0.90
2022-11-21T01:33:59.288Z,0.80
2022-11-21T01:36:51.394Z,0.70
2022-11-21T01:39:43.497Z,0.50
2022-11-21T01:42:52.995Z,0.50
2022-11-21T01:45:58.645Z,0.40
2022-11-21T01:49:01.040Z,0.30
2022-11-21T01:51:59.294Z,0.30
2022-11-21T01:55:02.691Z,0.30
2022-11-21T01:57:55.189Z,0.30
2022-11-21T02:00:48.204Z,0.00
2022-11-21T02:03:42.101Z,0.00
2022-11-21T02:06:37.304Z,0.00
2022-11-21T02:09:31.798Z,0.10
2022-11-21T02:12:35.584Z,0.00
2022-11-21T02:15:29.740Z,0.00
2022-11-21T02:18:21.902Z,0.00
2022-11-21T02:21:33.309Z,-0.10
2022-11-21T02:24:25.805Z,-0.10
2022-11-21T02:27:18.484Z,-0.20
2022-11-21T02:30:11.708Z,-0.20
2022-11-21T02:33:04.112Z,-0.20
2022-11-21T02:36:01.484Z,-0.50
2022-11-21T02:38:53.594Z,-0.50
2022-11-21T02:41:54.501Z,-0.50
2022-11-21T02:44:53.935Z,-0.40
2022-11-21T02:47:47.127Z,-0.30
2022-11-21T02:50:44.436Z,-0.20
2022-11-21T02:53:36.629Z,-0.10
2022-11-21T02:56:29.240Z,-0.10
2022-11-21T02:59:21.636Z,0.00
2022-11-21T03:02:13.744Z,0.00
2022-11-21T03:05:08.330Z,0.10
2022-11-21T03:08:00.565Z,0.20
2022-11-21T03:10:52.681Z,0.20
2022-11-21T03:13:44.767Z,0.30
2022-11-21T03:16:36.867Z,0.30
2022-11-21T03:19:29.223Z,0.30
2022-11-21T03:22:21.400Z,0.20
2022-11-21T03:25:13.535Z,0.30
2022-11-21T03:28:05.657Z,0.20
2022-11-21T03:30:57.802Z,0.20
2022-11-21T03:33:50.148Z,0.30
2022-11-21T03:36:42.339Z,0.20
2022-11-21T03:39:34.495Z,-0.10
2022-11-21T03:42:26.653Z,-0.30
2022-11-21T03:45:18.886Z,-0.40
2022-11-21T03:48:11.049Z,-0.40
2022-11-21T03:51:03.236Z,-0.50
2022-11-21T03:53:55.497Z,-0.40
2022-11-21T03:56:47.667Z,-0.20
2022-11-21T03:59:39.772Z,-0.20
2022-11-21T04:02:31.907Z,-0.10
2022-11-21T04:05:24.036Z,0.00
2022-11-21T04:08:16.141Z,0.10
2022-11-21T04:11:08.305Z,0.20
2022-11-21T04:14:00.438Z,0.20
2022-11-21T04:16:52.538Z,0.30
2022-11-21T04:19:44.661Z,0.20
2022-11-21T04:22:36.747Z,0.00
2022-11-21T04:25:28.837Z,0.00
2022-11-21T04:28:21.542Z,0.10
2022-11-21T04:31:13.675Z,0.10
2022-11-21T04:34:05.805Z,0.00
2022-11-21T04:36:57.938Z,-0.10
2022-11-21T04:39:50.068Z,-0.10
2022-11-21T04:42:43.433Z,-0.20
2022-11-21T04:45:35.535Z,-0.20
2022-11-21T04:48:27.737Z,-0.30
2022-11-21T04:51:19.854Z,-0.20
2022-11-21T04:54:12.231Z,-0.10
2022-11-21T04:57:04.378Z,-0.10
2022-11-21T04:59:56.907Z,-0.10
2022-11-21T05:02:49.196Z,-0.10
2022-11-21T05:05:41.684Z,-0.10
2022-11-21T05:08:33.879Z,-0.10
2022-11-21T05:11:44.920Z,0.00
2022-11-21T05:14:37.034Z,0.00
2022-11-21T05:17:29.917Z,0.00
2022-11-21T05:20:22.049Z,0.10
2022-11-21T05:23:14.252Z,0.10
2022-11-21T05:26:06.364Z,0.20
2022-11-21T05:28:58.554Z,0.30
2022-11-21T05:31:50.722Z,0.30
2022-11-21T05:34:42.875Z,0.40
2022-11-21T05:37:35.108Z,0.50
2022-11-21T05:40:27.351Z,0.50
2022-11-21T05:43:38.033Z,0.60
2022-11-21T05:46:30.299Z,0.40
2022-11-21T05:49:22.402Z,0.20
2022-11-21T05:52:14.605Z,0.10
2022-11-21T05:55:07.014Z,0.00
2022-11-21T05:58:00.112Z,0.00
2022-11-21T06:00:59.975Z,0.00
2022-11-21T06:03:52.311Z,-0.10
2022-11-21T06:06:44.414Z,-0.10
2022-11-21T06:09:36.529Z,-0.10
2022-11-21T06:12:28.605Z,-0.20
2022-11-21T06:15:20.699Z,-0.20
2022-11-21T06:18:12.775Z,-0.20
2022-11-21T06:21:16.561Z,-0.20
2022-11-21T06:24:09.024Z,-0.30
2022-11-21T06:27:01.133Z,-0.40
2022-11-21T06:29:53.256Z,-0.40
2022-11-21T06:32:45.416Z,-0.40
2022-11-21T06:35:38.861Z,-0.30
2022-11-21T06:38:31.120Z,-0.30
2022-11-21T06:41:25.432Z,-0.40
2022-11-21T06:44:18.602Z,-0.30
2022-11-21T06:47:10.812Z,-0.30
2022-11-21T06:50:03.172Z,-0.20
2022-11-21T06:52:58.590Z,-0.20
2022-11-21T06:55:50.745Z,-0.20
2022-11-21T06:58:42.903Z,-0.10
2022-11-21T07:01:35.144Z,-0.20
2022-11-21T07:04:27.634Z,-0.10
2022-11-21T07:07:20.093Z,0.10
2022-11-21T07:10:12.271Z,0.30
2022-11-21T07:13:22.909Z,0.40
2022-11-21T07:16:15.084Z,0.50
2022-11-21T07:19:07.216Z,0.50
2022-11-21T07:22:00.352Z,0.60
2022-11-21T07:24:52.482Z,0.70
2022-11-21T07:27:44.622Z,0.90
2022-11-21T07:30:37.471Z,1.10
2022-11-21T07:33:29.629Z,1.10
2022-11-21T07:36:21.789Z,1.30
2022-11-21T07:39:13.924Z,1.70
2022-11-21T07:42:06.037Z,2.00
2022-11-21T07:44:58.140Z,2.10
2022-11-21T07:48:01.699Z,2.00
2022-11-21T07:50:53.890Z,2.00
2022-11-21T07:53:46.025Z,1.90
2022-11-21T07:56:38.170Z,2.00
2022-11-21T07:59:30.488Z,1.90
2022-11-21T08:02:27.580Z,1.90
2022-11-21T08:05:19.862Z,1.80
2022-11-21T08:08:13.522Z,1.80
2022-11-21T08:11:07.107Z,2.00
2022-11-21T08:13:59.692Z,2.20
2022-11-21T08:16:52.970Z,2.30
2022-11-21T08:19:45.086Z,2.30
2022-11-21T08:22:41.531Z,2.30
2022-11-21T08:25:41.362Z,2.30
2022-11-21T08:28:33.506Z,2.30
2022-11-21T08:31:25.674Z,2.20
2022-11-21T08:34:17.763Z,2.10
2022-11-21T08:37:09.873Z,2.00
2022-11-21T08:40:02.469Z,2.00
2022-11-21T08:43:01.194Z,2.00
2022-11-21T08:45:53.328Z,1.90
2022-11-21T08:48:45.519Z,1.90
2022-11-21T08:51:37.632Z,1.90
2022-11-21T08:54:29.984Z,1.90
2022-11-21T08:57:22.259Z,1.90
2022-11-21T09:00:15.161Z,1.90
2022-11-21T09:03:07.355Z,1.90
2022-11-21T09:06:00.113Z,2.00
2022-11-21T09:08:53.001Z,2.00
2022-11-21T09:11:46.003Z,2.00
2022-11-21T09:14:56.899Z,2.00
2022-11-21T09:18:04.295Z,2.00
2022-11-21T09:20:56.430Z,2.00
2022-11-21T09:23:48.608Z,2.10
2022-11-21T09:26:40.715Z,2.30
2022-11-21T09:29:32.823Z,2.30
2022-11-21T09:32:25.100Z,2.30
2022-11-21T09:35:17.221Z,2.30
2022-11-21T09:38:09.873Z,2.40
2022-11-21T09:41:41.571Z,2.40
2022-11-21T09:44:58.123Z,2.50
2022-11-21T09:47:51.738Z,2.60
2022-11-21T09:50:55.443Z,2.60
2022-11-21T09:54:12.371Z,2.70
2022-11-21T09:57:04.563Z,2.80
2022-11-21T09:59:57.401Z,2.80
2022-11-21T10:02:54.701Z,2.90
2022-11-21T10:06:04.524Z,3.00
2022-11-21T10:09:07.662Z,3.20
2022-11-21T10:12:33.448Z,3.20
2022-11-21T10:15:43.997Z,3.50
2022-11-21T10:18:56.943Z,3.70
2022-11-21T10:22:08.790Z,3.90
2022-11-21T10:25:15.140Z,4.20
2022-11-21T10:28:22.653Z,4.40
2022-11-21T10:31:15.735Z,4.60
2022-11-21T10:34:18.030Z,4.70
2022-11-21T10:37:27.543Z,4.70
2022-11-21T10:40:28.477Z,4.90
2022-11-21T10:43:39.085Z,5.00
2022-11-21T10:46:31.183Z,5.20
2022-11-21T10:49:26.045Z,5.40
2022-11-21T10:52:23.218Z,5.50
2022-11-21T10:55:17.282Z,5.70
2022-11-21T10:58:19.392Z,5.90
2022-11-21T11:01:29.990Z,6.00
2022-11-21T11:04:31.133Z,6.10
2022-11-21T11:07:28.659Z,6.20
2022-11-21T11:10:27.924Z,6.30
2022-11-21T11:16:44.927Z,6.30
2022-11-21T11:19:40.297Z,6.30
2022-11-21T11:22:33.017Z,6.50
2022-11-21T11:25:25.251Z,6.60
2022-11-21T11:28:19.364Z,6.80
2022-11-21T11:31:12.080Z,6.70
2022-11-21T11:34:04.266Z,6.60
2022-11-21T11:37:17.564Z,6.50
2022-11-21T11:40:31.565Z,6.30
2022-11-21T11:44:09.309Z,6.30
2022-11-21T11:47:33.119Z,6.20
2022-11-21T11:50:31.698Z,6.40
2022-11-21T11:53:30.416Z,6.50
2022-11-21T11:56:25.075Z,6.70
2022-11-21T11:59:24.732Z,6.70
2022-11-21T12:02:25.355Z,6.80
2022-11-21T12:05:25.371Z,6.80
2022-11-21T12:08:41.405Z,6.80
2022-11-21T12:12:08.609Z,6.70
2022-11-21T12:15:37.667Z,6.70
2022-11-21T12:18:38.961Z,6.70
2022-11-21T12:21:31.371Z,6.80
2022-11-21T12:24:23.556Z,6.80
2022-11-21T12:27:29.675Z,7.00
2022-11-21T12:30:40.032Z,7.20
2022-11-21T12:33:36.700Z,7.30
2022-11-21T12:36:52.479Z,7.40
2022-11-21T12:40:19.726Z,7.70
2022-11-21T12:43:43.187Z,7.30
2022-11-21T12:47:01.344Z,6.90
2022-11-21T12:50:21.154Z,6.80
2022-11-21T12:54:00.864Z,6.70
2022-11-21T12:57:03.175Z,6.70
2022-11-21T13:00:11.814Z,6.60
2022-11-21T13:03:33.995Z,6.60
2022-11-21T13:06:29.223Z,6.70
2022-11-21T13:09:23.359Z,6.70
2022-11-21T13:12:44.550Z,6.60
2022-11-21T13:15:49.630Z,6.60
2022-11-21T13:18:48.934Z,6.60
2022-11-21T13:21:49.145Z,6.50
2022-11-21T13:24:44.398Z,6.60
2022-11-21T13:27:39.087Z,6.60
2022-11-21T13:30:31.433Z,6.50
2022-11-21T13:33:36.106Z,6.40
2022-11-21T13:36:28.282Z,6.40
2022-11-21T13:39:31.887Z,6.40
2022-11-21T13:42:42.930Z,6.50
2022-11-21T13:45:43.599Z,6.40
2022-11-21T13:48:57.197Z,6.40
2022-11-21T13:51:55.912Z,6.40
2022-11-21T13:55:09.513Z,6.40
2022-11-21T13:58:35.240Z,6.40
2022-11-21T14:01:40.855Z,6.30
2022-11-21T14:04:58.010Z,6.20
2022-11-21T14:07:51.169Z,6.30
2022-11-21T14:10:43.602Z,6.20
2022-11-21T14:13:38.809Z,6.20
2022-11-21T14:16:43.200Z,6.20
2022-11-21T14:19:36.145Z,6.20
2022-11-21T14:22:45.437Z,6.00
2022-11-21T14:25:40.953Z,5.90
2022-11-21T14:28:35.004Z,5.90
2022-11-21T14:31:27.151Z,5.80
2022-11-21T14:34:31.265Z,5.70
2022-11-21T14:37:23.643Z,5.60
2022-11-21T14:40:25.203Z,5.50
2022-11-21T14:43:33.614Z,5.40
2022-11-21T14:46:29.736Z,5.30
2022-11-21T14:49:26.336Z,5.20
2022-11-21T14:52:29.044Z,5.10
2022-11-21T14:55:32.442Z,5.10
2022-11-21T14:58:25.067Z,5.00
2022-11-21T15:01:29.351Z,5.00
2022-11-21T15:04:27.876Z,5.00
2022-11-21T15:07:31.542Z,4.90
2022-11-21T15:10:43.782Z,4.80
2022-11-21T15:13:58.641Z,4.80
2022-11-21T15:16:51.247Z,4.60
2022-11-21T15:19:45.014Z,4.60
2022-11-21T15:22:39.701Z,4.40
2022-11-21T15:25:45.538Z,4.40
2022-11-21T15:28:37.656Z,4.40
2022-11-21T15:31:29.794Z,4.30
2022-11-21T15:34:35.310Z,4.30
2022-11-21T15:37:28.360Z,4.20
2022-11-21T15:40:20.675Z,4.20
2022-11-21T15:43:35.575Z,4.20
2022-11-21T15:46:42.361Z,4.20
2022-11-21T15:49:34.453Z,4.10
2022-11-21T15:52:26.619Z,4.20
2022-11-21T15:55:21.643Z,4.20
2022-11-21T15:58:16.328Z,4.30
2022-11-21T16:01:17.684Z,4.30
2022-11-21T16:04:12.591Z,4.30
2022-11-21T16:07:04.788Z,4.20
2022-11-21T16:09:56.930Z,4.20
2022-11-21T16:12:49.077Z,4.20
2022-11-21T16:15:41.198Z,4.20
2022-11-21T16:18:33.294Z,4.20
2022-11-21T16:21:25.867Z,4.10
2022-11-21T16:24:18.127Z,4.00
2022-11-21T16:27:10.283Z,4.10
2022-11-21T16:30:02.559Z,4.10
2022-11-21T16:32:56.253Z,4.00
2022-11-21T16:35:49.906Z,3.90
2022-11-21T16:38:43.731Z,3.80
2022-11-21T16:41:35.892Z,3.70
2022-11-21T16:44:31.156Z,3.60
2022-11-21T16:47:23.306Z,3.50
2022-11-21T16:50:15.464Z,3.40
2022-11-21T16:53:07.799Z,3.40
2022-11-21T16:56:00.924Z,3.30
2022-11-21T16:58:53.242Z,3.30
2022-11-21T17:01:45.496Z,3.30
2022-11-21T17:04:37.748Z,3.30
2022-11-21T17:07:31.954Z,3.30
2022-11-21T17:10:24.184Z,3.10
2022-11-21T17:13:16.319Z,3.10
2022-11-21T17:16:09.041Z,3.10
2022-11-21T17:19:02.419Z,3.10
2022-11-21T17:21:54.593Z,3.00
2022-11-21T17:24:47.186Z,2.90
2022-11-21T17:27:39.328Z,2.80
2022-11-21T17:30:32.720Z,2.80
2022-11-21T17:33:25.275Z,2.80
2022-11-21T17:36:19.944Z,2.70
2022-11-21T17:39:12.865Z,2.60
2022-11-21T17:42:05.053Z,2.70
2022-11-21T17:44:57.158Z,2.70
2022-11-21T17:47:49.292Z,2.60
2022-11-21T17:50:41.420Z,2.60
2022-11-21T17:53:39.957Z,2.50
2022-11-21T17:56:34.489Z,2.40
2022-11-21T17:59:28.355Z,2.50
2022-11-21T18:02:21.783Z,2.50
2022-11-21T18:05:14.002Z,2.50
2022-11-21T18:08:06.114Z,2.60
2022-11-21T18:10:59.080Z,2.70
2022-11-21T18:13:51.303Z,2.70
2022-11-21T18:16:50.913Z,2.60
2022-11-21T18:19:45.143Z,2.60
2022-11-21T18:22:37.279Z,2.60
2022-11-21T18:25:29.455Z,2.60
2022-11-21T18:28:21.578Z,2.60
2022-11-21T18:31:16.284Z,2.70
2022-11-21T18:34:10.497Z,2.70
2022-11-21T18:37:02.673Z,2.70
2022-11-21T18:39:54.800Z,2.70
2022-11-21T18:42:47.060Z,2.70
2022-11-21T18:45:39.256Z,2.70
2022-11-21T18:49:00.040Z,2.70
2022-11-21T18:51:44.407Z,2.70
2022-11-21T18:54:36.526Z,2.60
2022-11-21T18:57:28.673Z,2.60
2022-11-21T19:00:20.980Z,2.50
2022-11-21T19:03:13.086Z,2.60
2022-11-21T19:06:13.655Z,2.50
2022-11-21T19:09:05.787Z,2.50
2022-11-21T19:11:57.913Z,2.40
2022-11-21T19:14:52.006Z,2.40
2022-11-21T19:17:44.151Z,2.20
2022-11-21T19:20:40.812Z,2.40
2022-11-21T19:23:40.501Z,2.50
2022-11-21T19:26:32.719Z,2.60
2022-11-21T19:29:24.879Z,2.70
2022-11-21T19:32:16.980Z,2.70
2022-11-21T19:35:09.766Z,2.70
2022-11-21T19:38:01.937Z,2.90
2022-11-21T19:41:12.860Z,3.00
2022-11-21T19:44:05.047Z,3.00
2022-11-21T19:46:57.190Z,3.00
2022-11-21T19:49:49.292Z,2.90
2022-11-21T19:52:41.426Z,2.90
2022-11-21T19:55:33.701Z,2.90
2022-11-21T19:58:27.467Z,2.80
2022-11-21T20:01:21.834Z,2.60
2022-11-21T20:04:14.160Z,2.70
2022-11-21T20:07:07.894Z,2.80
2022-11-21T20:10:00.172Z,2.90
2022-11-21T20:12:52.307Z,2.90
2022-11-21T20:15:44.419Z,2.80
2022-11-21T20:18:36.529Z,2.60
2022-11-21T20:21:29.735Z,2.70
2022-11-21T20:24:21.944Z,2.60
2022-11-21T20:27:14.129Z,2.60
2022-11-21T20:30:06.894Z,2.60
2022-11-21T20:32:58.982Z,2.70
2022-11-21T20:35:51.096Z,2.70
2022-11-21T20:38:44.496Z,2.60
2022-11-21T20:41:37.239Z,2.60
2022-11-21T20:45:36.426Z,2.50
2022-11-21T20:47:41.756Z,2.00
2022-11-21T20:51:29.661Z,1.70
2022-11-21T20:53:57.171Z,1.50
2022-11-21T20:56:52.222Z,1.40
2022-11-21T20:59:44.355Z,1.40
2022-11-21T21:02:36.411Z,1.30
2022-11-21T21:05:29.640Z,1.20
2022-11-21T21:08:21.858Z,1.00
2022-11-21T21:11:36.883Z,0.80
2022-11-21T21:14:28.715Z,0.70
2022-11-21T21:17:20.836Z,0.60
2022-11-21T21:20:13.077Z,0.60
2022-11-21T21:23:05.702Z,0.60
2022-11-21T21:25:57.873Z,0.60
2022-11-21T21:28:50.141Z,0.60
2022-11-21T21:31:49.577Z,0.60
2022-11-21T21:34:42.479Z,0.60
2022-11-21T21:37:34.631Z,0.70
2022-11-21T21:40:26.728Z,0.80
2022-11-21T21:43:18.841Z,0.80
2022-11-21T21:46:13.194Z,0.90
2022-11-21T21:49:05.373Z,0.90
2022-11-21T21:51:57.482Z,0.90
2022-11-21T21:54:49.755Z,0.90
2022-11-21T21:57:48.319Z,0.90
2022-11-21T22:00:43.346Z,0.90
2022-11-21T22:03:35.735Z,1.00
2022-11-21T22:06:28.592Z,1.20
2022-11-21T22:09:20.876Z,1.30
2022-11-21T22:12:13.024Z,1.30
2022-11-21T22:15:05.663Z,1.40
2022-11-21T22:17:57.786Z,1.50
2022-11-21T22:20:50.182Z,1.50
2022-11-21T22:23:56.415Z,1.30
2022-11-21T22:26:55.628Z,1.30
2022-11-21T22:29:47.765Z,1.30
2022-11-21T22:32:42.868Z,1.30
2022-11-21T22:35:35.344Z,1.10
2022-11-21T22:38:27.851Z,0.90
2022-11-21T22:41:25.507Z,0.80
2022-11-21T22:44:17.711Z,0.80
2022-11-21T22:47:09.816Z,0.90
2022-11-21T22:50:04.547Z,0.80
2022-11-21T22:52:56.638Z,0.90
2022-11-21T22:56:03.705Z,1.00
2022-11-21T22:58:56.264Z,1.00
2022-11-21T23:01:48.428Z,1.20
2022-11-21T23:04:40.574Z,1.30
2022-11-21T23:07:32.998Z,1.40
2022-11-21T23:10:25.176Z,1.50
2022-11-21T23:13:17.290Z,1.50
2022-11-21T23:16:10.473Z,1.60
2022-11-21T23:19:02.630Z,1.60
2022-11-21T23:21:54.742Z,1.60
2022-11-21T23:24:46.913Z,1.60
2022-11-21T23:27:39.049Z,1.70
2022-11-21T23:30:31.403Z,1.70
2022-11-21T23:33:23.859Z,1.70
2022-11-21T23:36:17.079Z,1.70
2022-11-21T23:39:09.325Z,1.80
2022-11-21T23:42:01.444Z,1.80
2022-11-21T23:44:53.600Z,1.70
2022-11-21T23:47:45.893Z,1.60
2022-11-21T23:50:37.994Z,1.60
2022-11-21T23:53:30.128Z,1.50
2022-11-21T23:56:22.358Z,1.50
2022-11-21T23:59:14.483Z,1.60
